createdAt,value
2019-04-23T00:00:15.834Z,12.40
2019-04-23T00:02:53.602Z,12.30
2019-04-23T00:05:33.521Z,12.30
2019-04-23T00:10:25.247Z,12.30
2019-04-23T00:13:04.303Z,12.20
2019-04-23T00:15:30.848Z,12.20
2019-04-23T00:18:12.507Z,12.20
2019-04-23T00:20:42.355Z,12.20
2019-04-23T00:23:06.164Z,12.20
2019-04-23T00:28:14.183Z,12.20
2019-04-23T00:33:12.556Z,12.20
2019-04-23T00:38:18.262Z,12.10
2019-04-23T00:40:45.395Z,12.10
2019-04-23T00:43:14.995Z,12.10
2019-04-23T00:45:44.515Z,12.10
2019-04-23T00:48:26.010Z,12.10
2019-04-23T00:50:52.881Z,12.00
2019-04-23T00:53:20.335Z,12.00
2019-04-23T00:55:47.758Z,12.00
2019-04-23T00:58:21.891Z,12.00
2019-04-23T01:03:16.941Z,12.00
2019-04-23T01:05:47.077Z,11.90
2019-04-23T01:11:16.805Z,11.90
2019-04-23T01:13:39.571Z,11.90
2019-04-23T01:16:05.971Z,11.90
2019-04-23T01:18:51.312Z,11.90
2019-04-23T01:20:56.604Z,11.90
2019-04-23T01:23:44.519Z,11.90
2019-04-23T01:26:30.829Z,11.90
2019-04-23T01:29:01.720Z,11.80
2019-04-23T01:31:34.861Z,11.80
2019-04-23T01:34:11.117Z,11.80
2019-04-23T01:36:33.059Z,11.80
2019-04-23T01:39:23.307Z,11.80
2019-04-23T01:41:42.209Z,11.80
2019-04-23T01:44:05.493Z,11.70
2019-04-23T01:46:45.830Z,11.70
2019-04-23T01:49:18.544Z,11.70
2019-04-23T01:54:09.535Z,11.70
2019-04-23T01:56:56.005Z,11.70
2019-04-23T01:59:21.329Z,11.70
2019-04-23T02:01:46.166Z,11.70
2019-04-23T02:04:16.928Z,11.70
2019-04-23T02:06:45.861Z,11.60
2019-04-23T02:09:13.974Z,11.60
2019-04-23T02:11:43.860Z,11.60
2019-04-23T02:14:16.500Z,11.60
2019-04-23T02:16:42.617Z,11.60
2019-04-23T02:19:25.441Z,11.60
2019-04-23T02:22:06.848Z,11.50
2019-04-23T02:24:39.612Z,11.50
2019-04-23T02:27:08.443Z,11.50
2019-04-23T02:29:44.234Z,11.50
2019-04-23T02:34:51.284Z,11.40
2019-04-23T02:37:14.971Z,11.50
2019-04-23T02:39:49.516Z,11.40
2019-04-23T02:44:38.766Z,11.40
2019-04-23T02:52:21.637Z,11.40
2019-04-23T02:54:50.527Z,11.40
2019-04-23T02:57:13.963Z,11.40
2019-04-23T03:00:06.048Z,11.30
2019-04-23T03:04:50.017Z,11.30
2019-04-23T03:07:41.133Z,11.30
2019-04-23T03:09:51.715Z,11.30
2019-04-23T03:12:29.483Z,11.30
2019-04-23T03:15:05.094Z,11.30
2019-04-23T03:17:30.980Z,11.30
2019-04-23T03:22:51.684Z,11.30
2019-04-23T03:30:26.386Z,11.20
2019-04-23T03:36:13.682Z,11.20
2019-04-23T03:37:58.559Z,11.20
2019-04-23T03:40:13.256Z,11.20
2019-04-23T03:42:53.933Z,11.20
2019-04-23T03:47:58.960Z,11.10
2019-04-23T03:50:29.889Z,11.10
2019-04-23T03:53:14.114Z,11.10
2019-04-23T03:57:43.366Z,11.10
2019-04-23T04:00:32.938Z,11.10
2019-04-23T04:03:23.127Z,11.10
2019-04-23T04:05:51.337Z,11.10
2019-04-23T04:10:42.126Z,11.10
2019-04-23T04:12:58.442Z,11.10
2019-04-23T04:20:52.363Z,11.00
2019-04-23T04:23:18.465Z,11.10
2019-04-23T04:30:45.373Z,11.10
2019-04-23T04:33:29.776Z,11.10
2019-04-23T04:35:47.666Z,11.10
2019-04-23T04:38:36.504Z,11.10
2019-04-23T04:41:08.947Z,11.10
2019-04-23T04:46:05.419Z,11.10
2019-04-23T04:48:23.186Z,11.10
2019-04-23T04:51:06.109Z,11.10
2019-04-23T04:53:50.498Z,11.10
2019-04-23T04:56:12.360Z,11.20
2019-04-23T04:58:34.460Z,11.20
2019-04-23T05:08:36.800Z,11.30
2019-04-23T05:13:43.554Z,11.30
2019-04-23T05:16:01.833Z,11.40
2019-04-23T05:21:10.251Z,11.40
2019-04-23T05:23:54.549Z,11.50
2019-04-23T05:26:17.454Z,11.50
2019-04-23T05:33:49.278Z,11.60
2019-04-23T05:43:46.887Z,11.90
2019-04-23T05:48:52.545Z,11.90
2019-04-23T05:51:27.988Z,12.00
2019-04-23T05:56:22.614Z,12.10
2019-04-23T05:58:55.763Z,12.10
2019-04-23T06:01:49.343Z,12.20
2019-04-23T06:04:08.819Z,12.20
2019-04-23T06:09:03.913Z,12.40
2019-04-23T06:11:36.999Z,12.40
2019-04-23T06:19:02.734Z,12.60
2019-04-23T06:21:38.420Z,12.70
2019-04-23T06:29:07.215Z,12.90
2019-04-23T06:31:40.779Z,13.00
2019-04-23T06:34:04.185Z,13.10
2019-04-23T06:36:32.590Z,13.10
2019-04-23T06:41:39.346Z,13.30
2019-04-23T06:44:14.739Z,13.40
2019-04-23T06:46:46.022Z,13.50
2019-04-23T06:49:15.266Z,13.60
2019-04-23T06:51:45.924Z,13.70
2019-04-23T06:54:12.279Z,13.80
2019-04-23T06:56:43.383Z,13.90
2019-04-23T06:59:14.979Z,14.00
2019-04-23T07:01:51.056Z,14.10
2019-04-23T07:04:10.700Z,14.10
2019-04-23T07:06:46.743Z,14.20
2019-04-23T07:14:08.574Z,14.50
2019-04-23T07:16:38.434Z,14.60
2019-04-23T07:19:16.532Z,14.70
2019-04-23T07:21:48.207Z,14.90
2019-04-23T07:26:42.310Z,15.10
2019-04-23T07:29:15.647Z,15.30
2019-04-23T07:31:50.090Z,15.50
2019-04-23T07:34:15.656Z,15.70
2019-04-23T07:36:47.448Z,15.90
2019-04-23T07:39:21.968Z,16.10
2019-04-23T07:42:03.370Z,16.30
2019-04-23T07:44:42.729Z,16.40
2019-04-23T07:49:50.634Z,16.60
2019-04-23T07:52:17.206Z,16.60
2019-04-23T07:54:44.251Z,16.70
2019-04-23T07:57:19.900Z,16.70
2019-04-23T07:59:51.678Z,16.70
2019-04-23T08:02:23.482Z,16.80
2019-04-23T08:04:56.595Z,16.80
2019-04-23T08:07:19.952Z,16.80
2019-04-23T08:09:53.315Z,16.80
2019-04-23T08:14:55.347Z,16.80
2019-04-23T08:17:19.114Z,16.90
2019-04-23T08:19:54.153Z,17.00
2019-04-23T08:22:35.611Z,17.00
2019-04-23T08:25:08.374Z,17.00
2019-04-23T08:27:34.738Z,17.10
2019-04-23T08:30:04.511Z,17.10
2019-04-23T08:32:29.567Z,17.20
2019-04-23T08:35:06.456Z,17.20
2019-04-23T08:37:54.154Z,17.30
2019-04-23T08:40:09.850Z,17.30
2019-04-23T08:42:46.276Z,17.40
2019-04-23T08:48:09.564Z,17.50
2019-04-23T08:53:21.104Z,17.80
2019-04-23T08:58:06.060Z,18.00
2019-04-23T09:00:49.337Z,18.00
2019-04-23T09:03:28.472Z,18.10
2019-04-23T09:05:45.096Z,18.20
2019-04-23T09:08:19.091Z,18.20
2019-04-23T09:10:50.264Z,18.40
2019-04-23T09:13:43.819Z,18.40
2019-04-23T09:20:44.556Z,18.60
2019-04-23T09:23:21.077Z,18.70
2019-04-23T09:28:26.104Z,18.70
2019-04-23T09:30:55.439Z,18.80
2019-04-23T09:33:32.399Z,18.80
2019-04-23T09:36:22.312Z,18.80
2019-04-23T09:38:59.861Z,18.90
2019-04-23T09:41:36.182Z,19.10
2019-04-23T09:44:27.385Z,19.20
2019-04-23T09:46:53.304Z,19.40
2019-04-23T09:51:58.960Z,19.70
2019-04-23T09:54:23.632Z,19.80
2019-04-23T09:57:06.121Z,19.90
2019-04-23T10:01:48.353Z,20.00
2019-04-23T10:04:13.114Z,20.20
2019-04-23T10:06:32.625Z,20.30
2019-04-23T10:09:02.193Z,20.40
2019-04-23T10:11:30.532Z,20.50
2019-04-23T10:14:00.789Z,20.60
2019-04-23T10:16:49.393Z,20.70
2019-04-23T10:19:18.991Z,20.80
2019-04-23T10:21:49.183Z,20.90
2019-04-23T10:24:19.250Z,21.00
2019-04-23T10:26:48.366Z,21.00
2019-04-23T10:29:31.977Z,21.10
2019-04-23T10:32:02.090Z,21.10
2019-04-23T10:34:42.977Z,21.20
2019-04-23T10:37:02.016Z,21.30
2019-04-23T10:39:36.961Z,21.40
2019-04-23T10:42:03.335Z,21.40
2019-04-23T10:44:35.029Z,21.50
2019-04-23T10:47:58.965Z,21.70
2019-04-23T10:50:43.667Z,21.80
2019-04-23T10:53:09.823Z,22.00
2019-04-23T10:55:44.773Z,22.10
2019-04-23T10:58:12.841Z,22.20
2019-04-23T11:00:37.628Z,22.20
2019-04-23T11:03:20.412Z,22.30
2019-04-23T11:05:51.716Z,22.40
2019-04-23T11:08:02.317Z,22.50
2019-04-23T11:10:41.044Z,22.60
2019-04-23T11:13:19.365Z,22.70
2019-04-23T11:18:04.767Z,22.80
2019-04-23T11:23:11.523Z,23.10
2019-04-23T11:25:42.805Z,23.30
2019-04-23T11:28:22.739Z,23.40
2019-04-23T11:30:45.217Z,23.50
2019-04-23T11:33:18.515Z,23.50
2019-04-23T11:40:53.485Z,23.80
2019-04-23T11:43:28.107Z,24.00
2019-04-23T11:53:34.391Z,24.30
2019-04-23T12:01:10.826Z,24.60
2019-04-23T12:04:07.221Z,24.60
2019-04-23T12:06:42.426Z,24.70
2019-04-23T12:14:30.258Z,25.00
2019-04-23T12:22:01.071Z,25.00
2019-04-23T12:24:50.563Z,25.00
2019-04-23T12:27:04.135Z,25.10
2019-04-23T12:29:33.208Z,25.10
2019-04-23T12:32:40.573Z,25.20
2019-04-23T12:34:52.963Z,25.40
2019-04-23T12:37:28.597Z,25.60
2019-04-23T12:39:49.806Z,25.70
2019-04-23T12:42:45.213Z,25.90
2019-04-23T12:44:56.853Z,26.00
2019-04-23T12:47:40.187Z,26.10
2019-04-23T12:52:28.398Z,26.10
2019-04-23T12:55:06.789Z,26.10
2019-04-23T12:57:29.957Z,26.10
2019-04-23T13:00:00.356Z,26.10
2019-04-23T13:02:33.489Z,26.00
2019-04-23T13:05:04.412Z,25.90
2019-04-23T13:07:33.536Z,25.80
2019-04-23T13:09:58.382Z,25.70
2019-04-23T13:17:39.714Z,25.40
2019-04-23T13:20:00.171Z,25.30
2019-04-23T13:25:30.153Z,25.10
2019-04-23T13:30:31.829Z,24.90
2019-04-23T13:33:03.080Z,24.70
2019-04-23T13:35:43.619Z,24.50
2019-04-23T13:37:58.918Z,24.40
2019-04-23T13:40:32.105Z,24.30
2019-04-23T13:45:57.755Z,24.10
2019-04-23T13:48:03.488Z,24.00
2019-04-23T13:50:43.233Z,23.90
2019-04-23T13:55:24.860Z,23.50
2019-04-23T13:58:07.270Z,23.40
2019-04-23T14:02:56.054Z,23.20
2019-04-23T14:05:43.221Z,23.10
2019-04-23T14:08:24.620Z,23.00
2019-04-23T14:15:53.965Z,22.60
2019-04-23T14:21:11.166Z,22.30
2019-04-23T14:23:27.647Z,22.20
2019-04-23T14:26:04.849Z,22.10
2019-04-23T14:28:21.975Z,22.00
2019-04-23T14:30:55.947Z,21.90
2019-04-23T14:33:25.868Z,21.90
2019-04-23T14:41:06.041Z,21.60
2019-04-23T14:43:30.802Z,21.50
2019-04-23T14:53:46.342Z,21.30
2019-04-23T14:56:17.316Z,21.30
2019-04-23T15:03:46.843Z,21.30
2019-04-23T15:08:58.662Z,21.20
2019-04-23T15:13:49.410Z,21.20
2019-04-23T15:16:22.279Z,21.20
2019-04-23T15:22:39.642Z,21.10
2019-04-23T15:25:13.706Z,21.10
2019-04-23T15:29:56.019Z,21.10
2019-04-23T15:32:44.588Z,21.10
2019-04-23T15:35:15.230Z,21.00
2019-04-23T15:38:02.186Z,21.00
2019-04-23T15:40:11.078Z,21.00
2019-04-23T15:42:42.077Z,21.00
2019-04-23T15:45:08.065Z,21.00
2019-04-23T15:47:45.308Z,21.00
2019-04-23T15:50:15.731Z,20.90
2019-04-23T15:52:47.981Z,20.90
2019-04-23T15:55:06.022Z,21.00
2019-04-23T16:00:24.913Z,20.90
2019-04-23T16:02:15.575Z,20.90
2019-04-23T16:04:44.801Z,20.90
2019-04-23T16:07:31.759Z,20.90
2019-04-23T16:10:17.643Z,20.80
2019-04-23T16:12:51.610Z,20.80
2019-04-23T16:15:12.926Z,20.80
2019-04-23T16:17:54.857Z,20.80
2019-04-23T16:20:29.608Z,20.80
2019-04-23T16:22:51.304Z,20.70
2019-04-23T16:25:20.321Z,20.70
2019-04-23T16:28:03.277Z,20.70
2019-04-23T16:38:31.018Z,20.50
2019-04-23T16:40:37.912Z,20.50
2019-04-23T16:43:18.470Z,20.40
2019-04-23T16:45:47.352Z,20.40
2019-04-23T16:51:12.180Z,20.30
2019-04-23T16:53:21.192Z,20.20
2019-04-23T16:56:04.263Z,20.20
2019-04-23T16:58:22.497Z,20.10
2019-04-23T17:03:28.242Z,20.00
2019-04-23T17:05:53.705Z,20.00
2019-04-23T17:10:53.460Z,20.00
2019-04-23T17:13:20.243Z,19.90
2019-04-23T17:18:25.939Z,19.90
2019-04-23T17:20:51.988Z,19.90
2019-04-23T17:24:11.453Z,19.80
2019-04-23T17:26:32.238Z,19.80
2019-04-23T17:31:35.258Z,19.70
2019-04-23T17:34:10.842Z,19.70
2019-04-23T17:36:38.549Z,19.60
2019-04-23T17:39:08.527Z,19.60
2019-04-23T17:41:50.200Z,19.50
2019-04-23T17:46:50.597Z,19.40
2019-04-23T17:49:15.333Z,19.40
2019-04-23T17:51:50.858Z,19.30
2019-04-23T17:54:25.074Z,19.30
2019-04-23T18:02:16.507Z,19.20
2019-04-23T18:04:27.418Z,19.10
2019-04-23T18:06:55.912Z,19.10
2019-04-23T18:09:27.826Z,19.00
2019-04-23T18:12:00.653Z,19.00
2019-04-23T18:14:28.391Z,18.90
2019-04-23T18:19:24.626Z,18.80
2019-04-23T18:22:07.297Z,18.80
2019-04-23T18:24:50.426Z,18.70
2019-04-23T18:27:20.419Z,18.70
2019-04-23T18:29:59.815Z,18.60
2019-04-23T18:32:23.336Z,18.60
2019-04-23T18:39:58.108Z,18.40
2019-04-23T18:42:31.801Z,18.40
2019-04-23T18:44:55.842Z,18.30
2019-04-23T18:47:40.439Z,18.30
2019-04-23T18:50:21.953Z,18.20
2019-04-23T18:52:40.874Z,18.20
2019-04-23T18:55:04.085Z,18.20
2019-04-23T18:57:33.899Z,18.10
2019-04-23T19:08:10.543Z,17.90
2019-04-23T19:10:36.079Z,17.80
2019-04-23T19:13:21.761Z,17.70
2019-04-23T19:18:12.637Z,17.60
2019-04-23T19:25:51.871Z,17.40
2019-04-23T19:28:34.548Z,17.40
2019-04-23T19:30:55.436Z,17.30
2019-04-23T19:33:29.091Z,17.30
2019-04-23T19:36:05.187Z,17.20
2019-04-23T19:38:30.224Z,17.20
2019-04-23T19:40:58.226Z,17.10
2019-04-23T19:46:02.050Z,17.00
2019-04-23T19:48:34.420Z,16.90
2019-04-23T20:03:46.323Z,16.60
2019-04-23T20:06:13.629Z,16.60
2019-04-23T20:11:07.843Z,16.50
2019-04-23T20:13:49.786Z,16.40
2019-04-23T20:16:10.593Z,16.40
2019-04-23T20:21:03.770Z,16.30
2019-04-23T20:33:02.207Z,16.10
2019-04-23T20:34:24.611Z,16.10
2019-04-23T20:36:43.091Z,16.10
2019-04-23T20:44:35.017Z,15.90
2019-04-23T20:47:04.825Z,15.80
2019-04-23T20:49:38.773Z,15.80
2019-04-23T20:57:25.192Z,15.60
2019-04-23T20:59:56.706Z,15.60
2019-04-23T21:05:10.148Z,15.60
2019-04-23T21:07:54.043Z,15.50
2019-04-23T21:15:18.359Z,15.40
2019-04-23T21:20:24.673Z,15.30
2019-04-23T21:22:51.458Z,15.30
2019-04-23T21:25:09.799Z,15.20
2019-04-23T21:30:53.659Z,15.20
2019-04-23T21:35:53.664Z,15.10
2019-04-23T21:38:21.537Z,15.10
2019-04-23T21:41:04.016Z,15.00
2019-04-23T21:43:25.009Z,15.00
2019-04-23T21:48:27.522Z,14.90
2019-04-23T21:51:09.529Z,14.90
2019-04-23T21:53:31.080Z,14.90
2019-04-23T21:58:26.172Z,14.80
2019-04-23T22:01:02.275Z,14.70
2019-04-23T22:03:49.531Z,14.70
2019-04-23T22:05:56.802Z,14.70
2019-04-23T22:08:27.059Z,14.70
2019-04-23T22:11:10.494Z,14.60
2019-04-23T22:16:14.604Z,14.50
2019-04-23T22:18:42.102Z,14.50
2019-04-23T22:21:04.853Z,14.40
2019-04-23T22:23:41.904Z,14.40
2019-04-23T22:26:09.460Z,14.40
2019-04-23T22:28:43.526Z,14.30
2019-04-23T22:33:39.331Z,14.30
2019-04-23T22:36:15.041Z,14.30
2019-04-23T22:38:39.502Z,14.20
2019-04-23T22:41:01.858Z,14.20
2019-04-23T22:43:59.407Z,14.20
2019-04-23T22:46:18.266Z,14.20
2019-04-23T22:48:47.854Z,14.20
2019-04-23T22:51:30.969Z,14.10
2019-04-23T22:53:53.903Z,14.10
2019-04-23T22:56:20.691Z,14.10
2019-04-23T22:58:51.247Z,14.00
2019-04-23T23:01:31.192Z,14.00
2019-04-23T23:03:58.830Z,14.00
2019-04-23T23:06:29.645Z,13.90
2019-04-23T23:09:12.059Z,13.90
2019-04-23T23:11:26.631Z,13.90
2019-04-23T23:14:10.101Z,13.80
2019-04-23T23:16:28.361Z,13.80
2019-04-23T23:19:07.042Z,13.80
2019-04-23T23:21:31.258Z,13.70
2019-04-23T23:23:59.391Z,13.70
2019-04-23T23:26:33.686Z,13.60
2019-04-23T23:29:00.692Z,13.70
2019-04-23T23:31:29.955Z,13.60
2019-04-23T23:34:10.119Z,13.60
2019-04-23T23:36:42.464Z,13.50
2019-04-23T23:39:24.962Z,13.50
2019-04-23T23:41:40.462Z,13.50
2019-04-23T23:44:28.383Z,13.40
2019-04-23T23:49:13.592Z,13.30
2019-04-23T23:54:21.584Z,13.20
2019-04-23T23:56:50.092Z,13.10
